Latest Coastal Weather Observations for Low Head

IDV60701

Issued at 7:52 pm EST Monday 4 May 2026 (issued every 10 minutes, with the page automatically refreshed every 10 minutes)

About coastal observations | Map of coastal stations | Coastal observations for VIC | Marine services | Other Formats
Station Details ID: 091293 Name: LOW HEAD Lat: -41.05 Lon: 146.79 Height: 3.0 m
Data from the previous 72 hours. | See also: Recent months at Low Head
Date/Time
EST
Wind Sea
Height
m
Swell Vis
km
Cloud Weather Temp
°C
Press
MSL
hPa
Rain since
9am
mm
Dir  Spd
kts
Gust
kts
Height
m
Period
s
Dir
04/07:30pm N 14 16 - - - - - - - 16.7 1008.5 0.0
04/07:00pm N 16 19 - - - - - - - 16.8 1008.5 0.0
04/06:30pm N 17 21 - - - - - - - 16.7 1008.5 0.0
04/06:00pm N 16 19 - - - - - - - 16.6 1008.3 0.0
04/05:30pm N 17 19 - - - - - - - 16.7 1008.2 0.0
04/05:00pm N 14 16 - - - - - - - 16.7 1008.2 0.0
04/04:30pm N 13 15 - - - - - - - 16.9 1008.3 0.0
04/04:00pm NNW 14 17 - - - - - - - 17.2 1008.3 0.0
04/03:30pm N 15 18 - - - - - - - 17.2 1008.4 0.0
04/03:00pm N 16 18 - - - - - - - 17.2 1008.5 0.0
04/02:30pm N 15 17 - - - - - - - 16.8 1008.4 0.0
04/02:00pm N 17 20 - - - - - - - 16.9 1008.5 0.0
04/01:30pm N 16 19 - - - - - - - 16.6 1008.7 0.0
04/01:00pm N 17 19 - - - - - - - 16.9 1009.0 0.0
04/12:30pm N 17 19 - - - - - - - 17.2 1009.4 0.0
04/12:00pm N 16 19 - - - - - - - 17.3 1010.0 0.0
04/11:30am N 15 17 - - - - - - - 17.1 1010.2 0.0
04/11:00am N 16 19 - - - - - - - 17.4 1010.5 0.0
04/10:30am N 17 19 - - - - - - - 16.9 1010.7 0.0
04/10:00am N 17 20 - - - - - - - 16.7 1010.7 0.0
04/09:30am NNW 15 18 - - - - - - - 16.8 1010.7 0.0
04/09:00am NNW 14 16 - - - - - - - 16.2 1010.5 12.2
04/08:30am NNW 12 14 - - - - - - - 16.7 1010.4 12.2
04/08:00am NNW 14 16 - - - - - - - 16.3 1010.3 12.2
04/07:30am NNW 12 15 - - - - - - - 16.1 1010.1 12.2
04/07:00am NW 15 17 - - - - - - - 15.9 1009.9 12.2
04/06:30am NW 16 18 - - - - - - - 15.9 1009.8 12.2
04/06:00am NW 15 18 - - - - - - - 16.1 1009.9 12.2
04/05:30am NNW 15 18 - - - - - - - 16.3 1009.7 12.2
04/05:00am NNW 13 16 - - - - - - - 16.2 1009.5 12.2
04/04:30am NNW 12 15 - - - - - - - 16.1 1009.5 12.2
04/04:00am NNW 12 14 - - - - - - - 16.1 1009.9 12.2
04/03:30am NNW 10 12 - - - - - - - 16.0 1009.9 12.2
04/03:00am NW 8 9 - - - - - - - 15.8 1010.1 12.2
04/02:30am NW 8 9 - - - - - - - 15.6 1010.4 12.2
04/02:00am NW 8 9 - - - - - - - 15.5 1010.5 12.2
04/01:30am NW 9 11 - - - - - - - 15.6 1010.4 12.2
04/01:00am NW 10 12 - - - - - - - 15.5 1010.7 12.2
04/12:30am WNW 9 11 - - - - - - - 15.4 1010.4 12.2
04/12:00am WNW 8 9 - - - - - - - 15.4 1010.5 12.2
 
Date/Time
EST
Wind Sea
Height
m
Swell Vis
km
Cloud Weather Temp
°C
Press
MSL
hPa
Rain since
9am
mm
Dir  Spd
kts
Gust
kts
Height
m
Period
s
Dir
03/11:30pm WNW 7 9 - - - - - - - 15.6 1010.6 12.2
03/11:00pm WNW 9 11 - - - - - - - 15.8 1011.1 12.2
03/10:30pm NW 9 11 - - - - - - - 16.0 1011.3 12.2
03/10:00pm NW 8 10 - - - - - - - 16.0 1011.0 12.2
03/09:30pm NW 11 14 - - - - - - - 16.2 1010.8 12.2
03/09:00pm NNW 11 13 - - - - - - - 16.7 1011.1 12.2
03/08:30pm N 13 16 - - - - - - - 16.7 1010.7 12.2
03/08:00pm NNE 15 17 - - - - - - - 16.7 1010.6 12.2
03/07:30pm NE 17 20 - - - - - - - 16.5 1010.8 12.2
03/07:00pm NE 17 19 - - - - - - - 16.3 1010.7 12.0
03/06:30pm NE 15 18 - - - - - - - 16.4 1010.5 11.4
03/06:00pm NE 15 17 - - - - - - Recent precip. 16.6 1010.1 10.4
03/05:30pm ENE 16 18 - - - - - - - 16.5 1010.1 10.2
03/05:00pm NE 16 19 - - - - - - - 16.5 1010.3 10.2
03/04:30pm NE 16 17 - - - - - - - 16.5 1010.5 10.2
03/04:00pm NE 17 20 - - - - - - - 16.6 1010.9 10.2
03/03:30pm NE 15 17 - - - - - - - 16.7 1011.3 10.2
03/03:00pm NE 14 16 - - - - - - Rain 16.6 1011.0 10.0
03/02:30pm N 19 22 - - - - - - - 16.8 1011.9 8.0
03/02:00pm ENE 17 19 - - - - - - - 17.0 1010.8 4.6
03/01:30pm ENE 16 21 - - - - - - - 17.5 1011.0 3.8
03/01:00pm E 10 13 - - - - - - - 17.5 1011.2 3.8
03/12:30pm SE 7 10 - - - - - - - 16.2 1011.8 3.8
03/12:00pm SE 2 5 - - - - - - Recent precip. 16.3 1012.7 3.6
03/11:30am SE 7 8 - - - - - - - 15.6 1013.1 2.4
03/11:00am SE 8 10 - - - - - - - 15.6 1013.4 1.0
03/10:30am SSE 7 9 - - - - - - - 16.0 1014.0 0.2
03/10:00am SSE 8 10 - - - - - - - 16.3 1014.2 0.0
03/09:30am S 7 8 - - - - - - - 15.9 1014.8 0.0
03/09:00am SSE 8 11 - - - - - - - 15.8 1014.7 0.0
03/08:30am SSE 8 10 - - - - - - - 15.5 1014.5 0.0
03/08:00am SE 7 9 - - - - - - - 15.4 1014.4 0.0
03/07:30am SE 8 10 - - - - - - - 15.3 1014.4 0.0
03/07:00am SSE 8 9 - - - - - - - 15.5 1014.3 0.0
03/06:30am SSE 7 9 - - - - - - - 15.8 1014.6 0.0
03/06:00am SE 8 9 - - - - - - - 16.2 1014.5 0.0
03/05:30am SSE 6 8 - - - - - - - 16.7 1014.9 0.0
03/05:00am SSE 7 8 - - - - - - - 16.3 1014.8 0.0
03/04:30am SE 5 6 - - - - - - - 16.6 1014.7 0.0
03/04:00am SE 5 6 - - - - - - - 16.9 1014.8 0.0
03/03:30am E 9 11 - - - - - - - 17.5 1014.6 0.0
03/03:00am E 7 10 - - - - - - - 17.5 1015.2 0.0
03/02:30am ESE 7 10 - - - - - - - 17.1 1015.4 0.0
03/02:00am SE 6 8 - - - - - - - 16.8 1015.7 0.0
03/01:30am SE 7 8 - - - - - - - 16.6 1015.9 0.0
03/01:00am ESE 9 11 - - - - - - - 16.1 1016.2 0.0
03/12:30am E 8 11 - - - - - - - 16.1 1016.5 0.0
03/12:00am E 12 15 - - - - - - - 16.9 1016.7 0.0
 
Date/Time
EST
Wind Sea
Height
m
Swell Vis
km
Cloud Weather Temp
°C
Press
MSL
hPa
Rain since
9am
mm
Dir  Spd
kts
Gust
kts
Height
m
Period
s
Dir
02/11:30pm E 9 14 - - - - - - - 16.9 1016.8 0.0
02/11:00pm E 12 14 - - - - - - - 17.1 1017.0 0.0
02/10:30pm E 10 16 - - - - - - - 17.1 1017.1 0.0
02/10:00pm E 7 11 - - - - - - - 16.7 1017.5 0.0
02/09:30pm ESE 6 9 - - - - - - - 16.4 1017.5 0.0
02/09:00pm SE 5 8 - - - - - - - 16.5 1017.5 0.0
02/08:30pm ESE 6 9 - - - - - - - 17.1 1017.5 0.0
02/08:00pm ESE 6 8 - - - - - - - 16.9 1017.4 0.0
02/07:30pm ESE 6 8 - - - - - - - 16.6 1017.5 0.0
02/07:00pm E 7 8 - - - - - - - 16.6 1017.4 0.0
02/06:30pm E 7 8 - - - - - - - 16.8 1017.2 0.0
02/06:00pm ESE 5 7 - - - - - - - 17.2 1017.2 0.0
02/05:30pm E 6 8 - - - - - - - 17.5 1017.0 0.0
02/05:00pm E 6 8 - - - - - - - 17.9 1017.0 0.0
02/04:30pm E 8 9 - - - - - - - 18.1 1017.0 0.0
02/04:00pm ENE 12 15 - - - - - - - 18.3 1017.2 0.0
02/03:30pm ENE 13 16 - - - - - - - 18.4 1017.3 0.0
02/03:00pm ENE 13 15 - - - - - - - 18.4 1017.5 0.0
02/02:30pm ENE 15 17 - - - - - - - 18.0 1017.5 0.0
02/02:00pm ENE 15 18 - - - - - - - 17.9 1017.7 0.0
02/01:30pm NE 14 16 - - - - - - - 18.1 1018.0 0.0
02/01:00pm NE 14 16 - - - - - - - 18.1 1018.4 0.0
02/12:30pm NE 14 16 - - - - - - - 18.3 1018.9 0.0
02/12:00pm NE 13 14 - - - - - - - 18.9 1019.3 0.0
02/11:30am NE 11 13 - - - - - - - 18.6 1019.8 0.0
02/11:00am ESE 4 8 - - - - - - - 18.5 1020.2 0.0
02/10:30am SE 6 9 - - - - - - - 17.7 1020.4 0.0
02/10:00am SSE 8 11 - - - - - - - 16.9 1020.6 0.0
02/09:30am SSE 11 14 - - - - - - - 16.2 1020.9 0.0
02/09:00am SSE 11 13 - - - - - - - 15.2 1021.2 0.0
02/08:30am SSE 11 14 - - - - - - - 13.8 1021.1 0.0
02/08:00am SSE 10 13 - - - - - - - 13.4 1021.2 0.0
02/07:30am SSE 12 14 - - - - - - - 13.4 1021.0 0.0
02/07:00am SSE 11 14 - - - - - - - 12.9 1020.9 0.0
02/06:30am SSE 10 12 - - - - - - - 12.5 1021.1 0.0
02/06:00am SSE 9 11 - - - - - - - 12.5 1021.0 0.0
02/05:30am SSE 8 10 - - - - - - - 12.7 1021.1 0.0
02/05:00am SSE 7 10 - - - - - - - 13.4 1020.9 0.0
02/04:30am SE 8 9 - - - - - - - 14.1 1020.9 0.0
02/04:00am SE 8 11 - - - - - - - 14.8 1021.0 0.0
02/03:30am ESE 6 8 - - - - - - - 13.8 1021.2 0.0
02/03:00am ESE 7 9 - - - - - - - 14.9 1021.4 0.0
02/02:30am SE 6 8 - - - - - - - 14.6 1021.8 0.0
02/02:00am SE 8 8 - - - - - - - 14.2 1022.0 0.0
02/01:30am SE 7 8 - - - - - - - 14.9 1022.2 0.0
02/01:00am SE 7 9 - - - - - - - 15.0 1022.6 0.0
02/12:30am SE 7 8 - - - - - - - 15.3 1022.8 0.0
02/12:00am ESE 7 9 - - - - - - - 15.1 1022.9 0.0
 
Date/Time
EST
Wind Sea
Height
m
Swell Vis
km
Cloud Weather Temp
°C
Press
MSL
hPa
Rain since
9am
mm
Dir  Spd
kts
Gust
kts
Height
m
Period
s
Dir
01/11:30pm ESE 6 9 - - - - - - - 15.0 1022.9 0.0
01/11:00pm ESE 7 9 - - - - - - - 15.1 1023.2 0.0
01/10:30pm ESE 7 9 - - - - - - - 15.0 1023.6 0.0
01/10:00pm ESE 7 8 - - - - - - - 15.2 1023.8 0.0
01/09:30pm ESE 5 8 - - - - - - - 15.2 1023.6 0.0
01/09:00pm ESE 7 8 - - - - - - - 15.0 1023.5 0.0
01/08:30pm ESE 6 9 - - - - - - - 15.7 1023.4 0.0
01/08:00pm E 10 11 - - - - - - - 15.2 1023.3 0.0

Other formats

Comma delimited format used in spreadsheet applications
http://www.bom.gov.au/fwo/IDV60701/IDV60701.95964.axf

JavaScript Object Notation format (JSON) in row-major order
http://www.bom.gov.au/fwo/IDV60701/IDV60701.95964.json

Data quality

Most of these data are generated automatically and are frequently updated. Quality checks on data are not normally performed. It is possible for incorrect values to appear. Refer to information at About Latest Weather Observations and please check the disclaimer before using these data.